Time;durP1;ratioP1;P1;durP2;ratioP2;P2;SDS_P1;SDS_P2;PMS_P1;PMS_P2;Temp;Humidity;BMP_temperature;BMP_pressure;BME280_temperature;BME280_humidity;BME280_pressure;Samples;Min_cycle;Max_cycle;Signal;HPM_P1;HPM_P2
2022/07/07 00:01:41;;;;;;;;;2.00;1.50;;;;;29.72;36.24;102037.38;5099566;27;45405;-87
2022/07/07 00:04:08;;;;;;;;;3.25;1.75;;;;;29.92;36.56;102032.06;5099911;27;47157;-85
2022/07/07 00:06:34;;;;;;;;;4.00;2.25;;;;;29.68;36.74;102027.94;5083391;27;45445;-86
2022/07/07 00:08:59;;;;;;;;;2.00;2.00;;;;;29.71;36.15;102032.94;5101736;27;45251;-86
2022/07/07 00:11:25;;;;;;;;;2.00;2.00;;;;;29.57;36.94;102036.63;5101531;27;45468;-85
2022/07/07 00:13:51;;;;;;;;;2.00;2.00;;;;;29.53;36.53;102027.16;5101055;27;45542;-85
2022/07/07 00:16:17;;;;;;;;;3.25;2.00;;;;;29.59;36.67;102024.47;5098897;27;45861;-85
2022/07/07 00:18:43;;;;;;;;;2.00;2.00;;;;;29.69;36.88;102033.16;5101161;27;45438;-85
2022/07/07 00:21:09;;;;;;;;;3.50;2.75;;;;;29.50;37.63;102027.56;5091030;27;45306;-85
2022/07/07 00:23:34;;;;;;;;;2.00;2.00;;;;;29.26;37.80;102028.78;5099927;27;47006;-85
2022/07/07 00:26:00;;;;;;;;;3.75;1.25;;;;;29.14;37.49;102024.88;5082740;27;45352;-85
2022/07/07 00:28:25;;;;;;;;;2.00;1.00;;;;;29.35;36.92;102027.59;5082877;27;45397;-86
2022/07/07 00:30:51;;;;;;;;;1.25;1.25;;;;;29.39;37.71;102026.22;5101063;27;45273;-86
2022/07/07 00:33:17;;;;;;;;;3.00;2.00;;;;;29.37;37.19;102029.13;5082527;27;46768;-85
2022/07/07 00:35:42;;;;;;;;;1.50;1.50;;;;;29.18;37.87;102021.59;5102180;27;45511;-85
2022/07/07 00:38:08;;;;;;;;;3.00;1.00;;;;;28.94;38.61;102014.69;5101170;27;45261;-85
2022/07/07 00:40:34;;;;;;;;;3.00;2.00;;;;;28.82;38.43;102010.78;5101374;27;45338;-85
2022/07/07 00:43:00;;;;;;;;;2.00;2.00;;;;;28.97;38.77;102011.53;5100829;27;45439;-85
2022/07/07 00:45:25;;;;;;;;;2.00;2.00;;;;;28.91;38.65;102001.44;5101429;27;45212;-85
2022/07/07 00:47:52;;;;;;;;;2.00;2.00;;;;;28.87;38.40;102002.00;5101260;27;45916;-85
2022/07/07 00:50:18;;;;;;;;;1.00;1.00;;;;;28.90;37.73;101990.75;5083088;27;45509;-85
2022/07/07 00:52:43;;;;;;;;;3.00;2.00;;;;;29.12;38.73;102006.06;5101155;27;46253;-85
2022/07/07 00:55:09;;;;;;;;;2.50;2.00;;;;;28.94;38.75;101997.50;5095692;27;45414;-85
2022/07/07 00:57:35;;;;;;;;;1.50;1.00;;;;;28.91;38.38;102004.16;5101198;27;45340;-85
2022/07/07 01:00:05;;;;;;;;;0.75;0.75;;;;;29.43;37.74;101994.84;5082814;27;45488;-85
2022/07/07 01:02:31;;;;;;;;;3.00;2.00;;;;;29.60;37.78;101990.78;5083286;27;46231;-85
2022/07/07 01:04:59;;;;;;;;;4.00;2.75;;;;;29.60;37.67;101987.22;5101693;27;45468;-85
2022/07/07 01:07:25;;;;;;;;;3.25;1.75;;;;;29.44;38.01;101982.06;5116228;27;45379;-85
2022/07/07 01:09:53;;;;;;;;;2.25;2.00;;;;;29.53;37.61;101979.00;5116046;27;45274;-85
2022/07/07 01:12:18;;;;;;;;;2.00;2.00;;;;;29.33;37.67;101969.81;5107027;27;46312;-85
2022/07/07 01:14:44;;;;;;;;;3.25;2.00;;;;;29.52;37.96;101982.75;5083069;27;45440;-85
2022/07/07 01:17:09;;;;;;;;;3.50;2.00;;;;;29.17;38.35;101970.09;5097141;27;45296;-85
2022/07/07 01:19:34;;;;;;;;;2.75;2.00;;;;;29.10;38.35;101975.47;5082207;27;45735;-85
2022/07/07 01:22:08;;;;;;;;;1.00;1.00;;;;;29.83;37.35;101974.19;5082093;27;48288;-85
2022/07/07 01:24:34;;;;;;;;;5.00;2.00;;;;;29.47;37.69;101979.81;5082130;27;45254;-85
2022/07/07 01:27:11;;;;;;;;;2.75;2.00;;;;;29.41;38.45;101986.03;5099835;27;45345;-85
2022/07/07 01:29:42;;;;;;;;;2.50;1.75;;;;;28.88;38.79;101979.22;5100737;27;45481;-85
2022/07/07 01:32:08;;;;;;;;;3.00;3.00;;;;;29.11;38.81;101984.50;5081863;27;47614;-85
2022/07/07 01:34:35;;;;;;;;;2.25;2.25;;;;;28.44;40.21;101969.31;5081934;27;45263;-85
2022/07/07 01:37:00;;;;;;;;;3.00;3.00;;;;;28.60;40.19;101979.94;5082008;27;45379;-85
2022/07/07 01:39:26;;;;;;;;;3.00;1.75;;;;;28.28;39.65;101972.25;5081803;27;45457;-85
2022/07/07 01:41:51;;;;;;;;;5.00;2.25;;;;;28.38;40.19;101969.25;5098917;27;45373;-85
2022/07/07 01:44:16;;;;;;;;;1.50;1.50;;;;;28.17;40.44;101979.00;5100303;27;45369;-85
2022/07/07 01:46:42;;;;;;;;;2.00;1.00;;;;;28.14;40.61;101965.78;5078789;27;45358;-85
2022/07/07 01:49:07;;;;;;;;;1.00;1.00;;;;;28.25;40.97;101969.91;5093776;27;45425;-85
2022/07/07 01:51:33;;;;;;;;;3.25;2.50;;;;;27.99;40.72;101964.09;5081263;27;47105;-85
2022/07/07 01:53:58;;;;;;;;;7.25;3.00;;;;;28.09;40.51;101967.38;5081913;27;45449;-85
2022/07/07 01:56:23;;;;;;;;;2.00;2.00;;;;;28.38;40.05;101963.81;5100236;27;45376;-85
2022/07/07 01:58:49;;;;;;;;;2.25;1.75;;;;;28.51;39.48;101953.91;5100228;27;45570;-85
2022/07/07 02:01:14;;;;;;;;;3.50;2.50;;;;;28.51;39.57;101951.19;5081216;27;46991;-85
2022/07/07 02:03:40;;;;;;;;;2.50;2.25;;;;;28.60;39.54;101962.78;5089636;27;45428;-85
2022/07/07 02:06:05;;;;;;;;;1.75;1.75;;;;;28.63;39.54;101944.25;5097904;27;45549;-85
2022/07/07 02:08:30;;;;;;;;;4.25;2.25;;;;;28.54;39.79;101947.28;5100023;27;45494;-85
2022/07/07 02:11:14;;;;;;;;;5.00;3.00;;;;;28.62;39.63;101950.72;5100502;27;46315;-85
2022/07/07 02:13:40;;;;;;;;;1.25;1.00;;;;;28.59;40.19;101948.38;5077878;27;45249;-85
2022/07/07 02:16:05;;;;;;;;;3.00;1.25;;;;;28.31;40.51;101933.84;5083154;27;45471;-85
2022/07/07 02:18:35;;;;;;;;;2.00;2.00;;;;;28.23;40.75;101934.78;5103620;27;45227;-85
2022/07/07 02:21:03;;;;;;;;;3.75;2.25;;;;;28.33;40.19;101936.34;5103028;27;45429;-85
2022/07/07 02:23:28;;;;;;;;;1.50;1.50;;;;;28.17;40.47;101938.28;5079776;28;45359;-84
2022/07/07 02:25:53;;;;;;;;;2.00;2.00;;;;;28.18;40.52;101939.13;5091714;27;45862;-85
2022/07/07 02:28:20;;;;;;;;;2.00;2.00;;;;;28.16;41.23;101939.28;5099617;27;46632;-85
2022/07/07 02:30:46;;;;;;;;;4.00;2.25;;;;;28.11;40.75;101935.44;5081456;27;47038;-85
2022/07/07 02:33:12;;;;;;;;;2.25;2.00;;;;;28.19;40.78;101938.09;5099428;27;45526;-84
2022/07/07 02:35:37;;;;;;;;;2.75;2.75;;;;;28.11;41.57;101940.88;5081507;27;45267;-85
2022/07/07 02:38:02;;;;;;;;;2.75;1.00;;;;;28.12;41.77;101942.56;5083721;27;45416;-85
2022/07/07 02:40:29;;;;;;;;;2.75;1.25;;;;;28.00;40.87;101933.22;5102704;27;45248;-85
2022/07/07 02:42:54;;;;;;;;;2.00;2.00;;;;;28.06;40.62;101932.44;5098339;27;45316;-85
2022/07/07 02:45:19;;;;;;;;;4.75;2.00;;;;;27.84;40.88;101932.38;5103120;27;45389;-84
2022/07/07 02:47:45;;;;;;;;;5.00;2.00;;;;;27.86;41.51;101934.91;5084694;27;45883;-85
2022/07/07 02:50:10;;;;;;;;;2.50;1.75;;;;;27.61;42.01;101939.75;5084055;27;47055;-85
2022/07/07 02:52:35;;;;;;;;;3.25;1.00;;;;;27.31;42.19;101933.44;5084216;27;45283;-85
2022/07/07 02:55:01;;;;;;;;;3.00;1.50;;;;;27.31;42.45;101935.31;5099509;27;45849;-85
2022/07/07 02:57:26;;;;;;;;;2.00;2.00;;;;;27.17;42.66;101942.38;5084323;27;45511;-84
2022/07/07 02:59:51;;;;;;;;;4.00;2.00;;;;;27.31;43.01;101941.59;5102763;27;45468;-85
2022/07/07 03:02:17;;;;;;;;;2.00;2.00;;;;;27.38;42.49;101934.38;5102575;27;45385;-85
2022/07/07 03:04:42;;;;;;;;;2.00;2.00;;;;;27.43;42.70;101941.94;5084490;27;45398;-84
2022/07/07 03:07:08;;;;;;;;;3.00;2.00;;;;;27.57;41.99;101940.34;5103139;27;45362;-85
2022/07/07 03:09:33;;;;;;;;;2.00;2.00;;;;;27.45;42.69;101935.31;5102521;27;46264;-85
2022/07/07 03:11:59;;;;;;;;;2.75;2.75;;;;;27.71;42.24;101925.91;5084195;27;45912;-85
2022/07/07 03:14:24;;;;;;;;;3.25;1.75;;;;;27.47;43.02;101937.84;5102900;27;45366;-85
2022/07/07 03:16:50;;;;;;;;;3.00;1.00;;;;;27.50;42.72;101929.31;5102667;27;45409;-85
2022/07/07 03:19:15;;;;;;;;;2.00;2.00;;;;;27.07;43.73;101930.94;5085820;27;47287;-85
2022/07/07 03:21:41;;;;;;;;;4.25;4.00;;;;;27.02;44.50;101926.06;5105436;27;45460;-85
2022/07/07 03:24:07;;;;;;;;;3.00;2.50;;;;;26.93;44.21;101942.59;5085787;27;45330;-84
2022/07/07 03:26:32;;;;;;;;;3.00;3.00;;;;;26.75;44.58;101937.44;5103225;27;45257;-85
2022/07/07 03:28:57;;;;;;;;;3.50;3.00;;;;;26.80;45.10;101933.16;5074909;27;47024;-85
2022/07/07 03:31:23;;;;;;;;;3.00;3.00;;;;;26.46;45.13;101921.88;5083954;27;45330;-85
2022/07/07 03:33:49;;;;;;;;;2.00;2.00;;;;;26.38;45.95;101930.91;5102612;27;45309;-85
2022/07/07 03:36:14;;;;;;;;;3.00;3.00;;;;;26.70;45.17;101929.84;5102273;27;45358;-85
2022/07/07 03:38:40;;;;;;;;;5.25;2.75;;;;;26.52;45.53;101932.00;5102210;27;45325;-85
2022/07/07 03:41:05;;;;;;;;;3.75;2.75;;;;;26.80;45.41;101935.88;5083652;27;46295;-85
2022/07/07 03:43:30;;;;;;;;;4.00;3.50;;;;;26.81;45.12;101923.16;5097325;27;45297;-85
2022/07/07 03:45:56;;;;;;;;;2.50;2.50;;;;;26.80;45.29;101929.59;5101365;27;45621;-85
2022/07/07 03:48:21;;;;;;;;;1.75;1.75;;;;;26.81;45.09;101934.00;5081467;27;48280;-85
2022/07/07 03:50:47;;;;;;;;;4.25;3.75;;;;;26.86;45.33;101926.16;5101871;27;45333;-85
2022/07/07 03:53:12;;;;;;;;;2.25;2.25;;;;;26.94;44.92;101919.88;5102206;27;45244;-85
2022/07/07 03:55:38;;;;;;;;;3.00;2.00;;;;;27.06;44.58;101919.25;5093857;27;45516;-85
2022/07/07 03:58:03;;;;;;;;;2.75;2.75;;;;;26.83;45.40;101916.53;5091932;27;48357;-85
2022/07/07 04:00:29;;;;;;;;;5.00;2.75;;;;;26.88;45.68;101925.97;5088755;27;45477;-85
2022/07/07 04:02:54;;;;;;;;;2.00;2.00;;;;;26.84;45.50;101928.22;5101957;27;45403;-84
2022/07/07 04:05:20;;;;;;;;;2.50;1.75;;;;;27.01;45.47;101912.69;5079579;27;45605;-85
2022/07/07 04:07:45;;;;;;;;;5.75;2.50;;;;;27.04;45.00;101909.63;5083681;27;48157;-85
2022/07/07 04:10:11;;;;;;;;;4.25;3.75;;;;;27.10;45.02;101917.88;5083305;27;45330;-85
2022/07/07 04:12:36;;;;;;;;;2.75;2.75;;;;;27.11;45.17;101913.28;5083530;27;45388;-85
2022/07/07 04:15:02;;;;;;;;;4.75;3.25;;;;;27.22;44.77;101912.84;5083147;27;45518;-85
2022/07/07 04:17:27;;;;;;;;;2.25;2.25;;;;;27.06;45.20;101911.09;5083025;27;45727;-85
2022/07/07 04:19:53;;;;;;;;;3.75;2.25;;;;;27.34;44.23;101914.06;5099426;27;45496;-85
2022/07/07 04:22:18;;;;;;;;;2.25;2.25;;;;;26.90;46.70;101913.09;5089767;27;45170;-85
2022/07/07 04:24:44;;;;;;;;;5.25;3.75;;;;;26.94;46.18;101934.28;5084396;27;45222;-85
2022/07/07 04:27:10;;;;;;;;;7.50;3.25;;;;;27.14;45.67;101919.16;5083470;27;47536;-85
2022/07/07 04:29:35;;;;;;;;;5.00;3.00;;;;;27.24;45.65;101916.19;5102394;27;45242;-85
2022/07/07 04:32:01;;;;;;;;;6.00;3.00;;;;;27.29;45.37;101916.50;5100580;27;45164;-85
2022/07/07 04:34:26;;;;;;;;;4.00;3.00;;;;;27.29;45.22;101918.38;5082321;27;45435;-85
2022/07/07 04:36:51;;;;;;;;;4.25;2.75;;;;;27.66;44.85;101921.06;5082539;27;45874;-84
2022/07/07 04:39:17;;;;;;;;;2.25;1.75;;;;;27.64;44.32;101906.00;5082952;27;45535;-85
2022/07/07 04:41:42;;;;;;;;;3.50;2.00;;;;;27.54;44.68;101931.53;5082636;27;45467;-85
2022/07/07 04:44:08;;;;;;;;;2.50;2.50;;;;;27.78;44.48;101930.41;5097455;27;45579;-85
2022/07/07 04:46:33;;;;;;;;;5.00;3.25;;;;;27.81;44.37;101923.75;5101326;27;45428;-85
2022/07/07 04:48:59;;;;;;;;;4.00;2.00;;;;;27.88;43.86;101938.25;5082287;27;45365;-85
2022/07/07 04:51:24;;;;;;;;;4.50;3.75;;;;;27.71;44.61;101937.63;5082641;27;45319;-85
2022/07/07 04:53:50;;;;;;;;;3.50;3.50;;;;;27.45;46.27;101932.59;5100598;27;45401;-85
2022/07/07 04:56:15;;;;;;;;;3.25;2.75;;;;;27.35;45.70;101939.31;5091746;27;45485;-85
2022/07/07 04:58:41;;;;;;;;;4.00;3.00;;;;;27.42;45.69;101957.38;5082133;27;45385;-85
2022/07/07 05:01:08;;;;;;;;;4.00;4.00;;;;;27.38;46.18;101957.97;5097748;27;45455;-85
2022/07/07 05:03:33;;;;;;;;;5.25;4.25;;;;;27.40;45.19;101948.63;5082426;27;45913;-84
2022/07/07 05:05:59;;;;;;;;;5.25;3.00;;;;;27.64;45.72;101952.13;5061885;27;45842;-85
2022/07/07 05:08:24;;;;;;;;;2.50;2.50;;;;;27.78;45.33;101967.56;5070650;27;45459;-85
2022/07/07 05:10:49;;;;;;;;;4.50;3.00;;;;;27.88;44.70;101965.41;5086493;27;45416;-84
2022/07/07 05:13:15;;;;;;;;;5.75;2.75;;;;;27.86;44.71;101967.50;5087218;27;45691;-85
2022/07/07 05:15:40;;;;;;;;;5.25;3.00;;;;;27.88;45.10;101959.97;5056148;27;47225;-85
2022/07/07 05:18:05;;;;;;;;;5.25;3.00;;;;;28.37;44.24;101962.13;5072026;27;45407;-85
2022/07/07 05:20:31;;;;;;;;;2.50;2.00;;;;;28.09;44.20;101967.38;5069716;27;45748;-84
2022/07/07 05:22:56;;;;;;;;;2.25;2.00;;;;;28.16;43.69;101963.75;5082267;27;45561;-85
2022/07/07 05:25:22;;;;;;;;;4.25;3.50;;;;;28.16;44.12;101958.31;5085702;27;46625;-84
2022/07/07 05:27:48;;;;;;;;;3.25;3.00;;;;;28.33;43.94;101952.66;5067853;27;46158;-84
2022/07/07 05:30:14;;;;;;;;;4.25;3.00;;;;;28.35;43.65;101953.31;5076170;27;45388;-85
2022/07/07 05:32:39;;;;;;;;;3.25;3.25;;;;;28.32;43.69;101951.00;5069739;27;46551;-84
2022/07/07 05:35:05;;;;;;;;;4.00;3.50;;;;;28.53;43.34;101957.28;5066211;27;46077;-85
2022/07/07 05:37:30;;;;;;;;;3.00;3.00;;;;;28.85;42.95;101953.28;5066319;27;45565;-84
2022/07/07 05:39:56;;;;;;;;;3.25;3.25;;;;;28.80;43.12;101954.88;5081190;27;45805;-85
2022/07/07 05:42:21;;;;;;;;;2.75;2.75;;;;;28.76;43.22;101954.41;5100980;27;45439;-86
2022/07/07 05:44:47;;;;;;;;;3.00;3.00;;;;;28.56;43.27;101958.81;5081907;27;47793;-86
2022/07/07 05:47:12;;;;;;;;;5.50;3.50;;;;;29.11;42.64;101958.13;5098168;27;45485;-86
2022/07/07 05:49:37;;;;;;;;;3.75;3.00;;;;;28.34;43.98;101965.22;5099327;27;45777;-86
2022/07/07 05:52:04;;;;;;;;;6.25;3.25;;;;;28.73;43.42;101965.66;5097477;27;45298;-87
2022/07/07 05:54:29;;;;;;;;;5.75;2.75;;;;;28.27;44.39;101970.56;5081634;27;47411;-89
2022/07/07 05:56:55;;;;;;;;;3.75;3.00;;;;;28.56;43.99;101969.66;5081761;27;45375;-84
2022/07/07 05:59:21;;;;;;;;;3.00;3.00;;;;;28.48;43.96;101967.91;5100106;27;45410;-86
2022/07/07 06:01:46;;;;;;;;;3.00;2.00;;;;;28.73;43.69;101976.53;5098738;27;45481;-87
2022/07/07 06:04:11;;;;;;;;;3.00;3.00;;;;;28.64;43.64;101961.38;5079016;27;47146;-85
2022/07/07 06:06:37;;;;;;;;;5.25;3.00;;;;;28.57;44.19;101974.91;5099456;27;46716;-83
2022/07/07 06:09:02;;;;;;;;;2.00;2.00;;;;;28.37;44.49;101984.72;5081706;27;45559;-83
2022/07/07 06:11:28;;;;;;;;;5.75;2.00;;;;;28.61;43.75;101986.22;5081823;27;45364;-83
2022/07/07 06:13:53;;;;;;;;;5.25;4.00;;;;;28.68;43.95;101978.97;5085023;27;47141;-83
2022/07/07 06:16:38;;;;;;;;;3.50;3.50;;;;;28.86;43.58;101990.28;5084890;27;45930;-82
2022/07/07 06:19:06;;;;;;;;;9.25;3.50;;;;;28.98;42.99;101991.47;5103473;27;45426;-84
2022/07/07 06:21:31;;;;;;;;;7.00;6.00;;;;;28.96;42.94;101998.13;5102171;27;45266;-83
2022/07/07 06:23:57;;;;;;;;;2.00;2.00;;;;;29.07;42.94;102004.94;5084598;27;46822;-83
2022/07/07 06:26:22;;;;;;;;;5.75;4.50;;;;;29.02;42.95;102008.25;5101177;27;45800;-83
2022/07/07 06:28:48;;;;;;;;;5.00;3.00;;;;;29.01;43.66;102012.00;5103224;27;45341;-83
2022/07/07 06:31:13;;;;;;;;;5.50;3.00;;;;;29.08;43.08;102014.78;5103083;27;45271;-83
2022/07/07 06:33:38;;;;;;;;;4.00;3.00;;;;;29.20;43.06;102014.09;5103167;27;46436;-84
2022/07/07 06:36:04;;;;;;;;;2.50;2.50;;;;;29.19;42.68;102026.00;5102147;27;45420;-82
2022/07/07 06:38:30;;;;;;;;;4.25;3.00;;;;;29.25;42.76;102019.78;5087013;27;45301;-82
2022/07/07 06:40:59;;;;;;;;;4.00;3.25;;;;;29.46;42.16;102020.81;5105579;27;45409;-83
2022/07/07 06:43:24;;;;;;;;;3.00;3.00;;;;;29.77;42.20;102024.81;5084033;27;47375;-82
2022/07/07 06:45:50;;;;;;;;;4.50;4.25;;;;;29.23;43.00;102023.72;5103874;27;45455;-82
2022/07/07 06:48:18;;;;;;;;;3.00;3.00;;;;;29.59;41.96;102021.75;5085121;27;45429;-81
2022/07/07 06:50:44;;;;;;;;;5.75;2.00;;;;;29.65;42.27;102026.44;5083060;27;45417;-83
2022/07/07 06:53:09;;;;;;;;;6.75;4.00;;;;;29.61;42.33;102024.28;5109336;27;45434;-83
2022/07/07 06:55:35;;;;;;;;;3.00;3.00;;;;;29.99;41.40;102027.53;5108928;27;44644;-82
2022/07/07 06:58:02;;;;;;;;;3.00;3.00;;;;;30.04;41.31;102028.63;5088654;27;45274;-83
2022/07/07 07:00:28;;;;;;;;;3.00;3.00;;;;;30.21;40.83;102020.97;5104994;27;45488;-83
2022/07/07 07:02:54;;;;;;;;;6.50;5.25;;;;;29.89;41.65;102024.28;5103115;27;45421;-83
2022/07/07 07:05:19;;;;;;;;;4.00;3.00;;;;;29.92;42.08;102022.00;5084142;27;45464;-84
2022/07/07 07:07:44;;;;;;;;;7.75;4.00;;;;;30.04;41.51;102025.91;5102411;27;45252;-82
2022/07/07 07:10:11;;;;;;;;;3.50;2.00;;;;;30.17;41.09;102035.16;5083781;27;45356;-84
2022/07/07 07:12:38;;;;;;;;;5.00;4.00;;;;;30.15;40.95;102021.75;5083727;27;47242;-83
2022/07/07 07:15:04;;;;;;;;;3.00;3.00;;;;;30.22;41.22;102033.53;5099260;27;46735;-86
2022/07/07 07:17:30;;;;;;;;;4.00;3.00;;;;;30.30;40.64;102037.97;5102209;27;45373;-86
2022/07/07 07:19:55;;;;;;;;;4.50;3.50;;;;;30.31;40.48;102040.50;5100391;27;45273;-87
2022/07/07 07:22:21;;;;;;;;;6.50;3.00;;;;;30.13;40.75;102051.94;5083540;27;47946;-87
2022/07/07 07:24:46;;;;;;;;;4.75;3.50;;;;;30.73;40.41;102052.25;5101196;27;45311;-86
2022/07/07 07:27:11;;;;;;;;;3.50;3.00;;;;;31.00;39.54;102043.09;5102404;27;45859;-87
2022/07/07 07:29:37;;;;;;;;;4.00;3.00;;;;;31.04;39.51;102054.44;5083655;27;45428;-85
2022/07/07 07:32:03;;;;;;;;;3.50;3.50;;;;;31.09;39.25;102055.50;5102010;27;45392;-85
2022/07/07 07:34:28;;;;;;;;;7.00;4.00;;;;;30.97;39.27;102053.56;5083298;27;45423;-86
2022/07/07 07:36:53;;;;;;;;;5.50;3.75;;;;;31.35;38.92;102060.16;5084229;27;45286;-87
2022/07/07 07:39:19;;;;;;;;;2.00;2.00;;;;;31.57;38.54;102069.00;5102475;27;45615;-88
2022/07/07 07:41:44;;;;;;;;;5.00;2.00;;;;;31.90;37.89;102069.00;5101968;27;45535;-87
2022/07/07 07:44:10;;;;;;;;;4.00;3.00;;;;;31.80;37.72;102082.25;5083522;27;45452;-87
2022/07/07 07:46:35;;;;;;;;;3.00;2.00;;;;;31.97;37.70;102067.94;5083916;27;45404;-87
2022/07/07 07:49:06;;;;;;;;;3.00;3.00;;;;;31.92;37.89;102077.84;5101787;27;45500;-88
2022/07/07 07:51:35;;;;;;;;;7.25;6.50;;;;;31.81;37.58;102083.94;5083241;27;47399;-88
2022/07/07 07:54:00;;;;;;;;;8.25;5.00;;;;;32.07;37.59;102080.31;5083143;27;45463;-87
2022/07/07 07:56:26;;;;;;;;;2.75;2.00;;;;;32.46;37.30;102079.44;5083853;27;46338;-87
2022/07/07 07:58:51;;;;;;;;;4.00;3.00;;;;;33.77;35.87;102075.94;5091824;27;45415;-88
2022/07/07 08:01:17;;;;;;;;;5.00;2.25;;;;;37.44;34.02;102076.63;5079501;27;46954;-88
2022/07/07 08:03:43;;;;;;;;;5.25;3.00;;;;;40.86;31.97;102066.81;5078918;27;46431;-88
2022/07/07 08:06:08;;;;;;;;;4.50;3.00;;;;;43.92;28.78;102066.91;5082499;27;45449;-88
2022/07/07 08:08:33;;;;;;;;;3.25;2.75;;;;;46.55;25.71;102056.16;5096273;27;45338;-88
2022/07/07 08:10:59;;;;;;;;;3.25;2.00;;;;;47.86;18.90;102053.97;5100671;27;45574;-89
2022/07/07 08:13:24;;;;;;;;;1.00;1.00;;;;;48.56;21.18;102064.22;5081815;27;45380;-88
2022/07/07 08:15:50;;;;;;;;;1.00;1.00;;;;;49.77;18.47;102064.06;5081936;27;45342;-88
2022/07/07 08:18:16;;;;;;;;;3.75;1.00;;;;;48.79;19.22;102064.13;5081493;27;45468;-86
2022/07/07 08:20:41;;;;;;;;;1.00;0.00;;;;;47.12;19.69;102062.09;5099691;27;46208;-86
2022/07/07 08:23:07;;;;;;;;;2.25;0.50;;;;;44.93;20.71;102063.97;5081557;27;45743;-87
2022/07/07 08:25:33;;;;;;;;;1.25;1.25;;;;;42.49;21.71;102055.25;5095894;27;45405;-87
2022/07/07 08:27:59;;;;;;;;;0.00;0.00;;;;;41.42;22.83;102051.06;5082121;27;45615;-86
2022/07/07 08:30:25;;;;;;;;;2.75;0.50;;;;;43.53;22.63;102057.84;5081561;27;47208;-86
2022/07/07 08:32:52;;;;;;;;;2.50;0.00;;;;;42.75;21.98;102057.88;5081775;27;45461;-86
2022/07/07 08:35:18;;;;;;;;;2.00;1.00;;;;;41.25;22.91;102069.94;5082007;27;45362;-86
2022/07/07 08:37:43;;;;;;;;;1.00;1.00;;;;;40.00;24.34;102061.72;5101501;27;45390;-86
2022/07/07 08:40:10;;;;;;;;;0.75;0.75;;;;;41.30;24.42;102064.38;5081322;27;47297;-87
2022/07/07 08:42:36;;;;;;;;;2.00;1.50;;;;;41.08;23.74;102057.13;5081585;27;45535;-87
2022/07/07 08:45:02;;;;;;;;;2.25;1.00;;;;;41.31;24.11;102044.69;5100464;27;45485;-86
2022/07/07 08:47:27;;;;;;;;;1.00;1.00;;;;;44.80;23.32;102056.38;5081746;27;45848;-86
2022/07/07 08:49:53;;;;;;;;;6.75;3.00;;;;;47.24;20.40;102048.38;5081454;27;46994;-86
2022/07/07 08:52:19;;;;;;;;;2.75;2.00;;;;;46.19;20.43;102056.09;5099818;27;45366;-86
2022/07/07 08:54:47;;;;;;;;;1.75;1.00;;;;;44.48;20.34;102057.91;5080599;27;45451;-86
2022/07/07 08:57:13;;;;;;;;;1.25;0.00;;;;;42.91;21.16;102065.84;5081395;27;45839;-86
2022/07/07 08:59:38;;;;;;;;;1.75;1.00;;;;;41.32;22.53;102082.41;5065954;27;47257;-86
2022/07/07 09:02:04;;;;;;;;;1.00;1.00;;;;;39.97;23.34;102062.25;5094530;27;45405;-86
2022/07/07 09:04:30;;;;;;;;;4.50;2.50;;;;;39.59;24.47;102071.66;5080469;27;45594;-86
2022/07/07 09:07:04;;;;;;;;;5.00;0.75;;;;;39.02;24.29;102061.19;5081311;27;45562;-86
2022/07/07 09:09:35;;;;;;;;;6.75;2.75;;;;;41.47;23.99;102068.53;5087097;27;46286;-87
2022/07/07 09:12:03;;;;;;;;;2.25;1.25;;;;;42.68;21.77;102058.22;5081326;27;45635;-87
2022/07/07 09:14:36;;;;;;;;;3.00;1.75;;;;;41.44;22.72;102066.28;5088217;27;45520;-86
2022/07/07 09:17:03;;;;;;;;;1.00;1.00;;;;;40.43;23.24;102066.09;5080081;27;45374;-86
2022/07/07 09:19:28;;;;;;;;;0.00;0.00;;;;;39.29;24.53;102059.22;5099313;27;46479;-86
2022/07/07 09:21:54;;;;;;;;;2.50;1.00;;;;;38.26;24.92;102070.47;5099017;27;45271;-84
2022/07/07 09:24:19;;;;;;;;;10.75;6.25;;;;;37.89;25.52;102071.03;5097650;27;45648;-85
2022/07/07 09:26:56;;;;;;;;;2.75;2.00;;;;;37.15;26.13;102080.56;5083779;27;45559;-85
2022/07/07 09:29:23;;;;;;;;;25.25;11.50;;;;;37.04;26.24;102076.72;5101129;27;46088;-85
2022/07/07 09:32:00;;;;;;;;;26.25;12.75;;;;;36.78;27.07;102083.69;5099756;27;45447;-85
2022/07/07 09:34:31;;;;;;;;;11.50;5.00;;;;;35.99;28.39;102083.31;5081297;27;45518;-85
2022/07/07 09:39:50;;;;;;;;;3.25;3.00;;;;;35.74;28.34;102085.47;5093825;27;46091;-85
2022/07/07 09:42:25;;;;;;;;;1.25;1.25;;;;;36.13;28.11;102092.16;5070839;27;46108;-85
2022/07/07 09:45:03;;;;;;;;;1.75;1.00;;;;;35.96;28.75;102081.06;5084755;27;45326;-85
2022/07/07 09:47:29;;;;;;;;;2.00;2.00;;;;;36.15;28.62;102100.97;5109938;27;45414;-84
2022/07/07 09:49:59;;;;;;;;;1.00;1.00;;;;;35.64;28.57;102107.16;5118473;27;47718;-84
2022/07/07 09:52:26;;;;;;;;;1.00;1.00;;;;;35.35;28.92;102100.66;5095006;27;45815;-85
2022/07/07 09:54:51;;;;;;;;;2.75;2.00;;;;;35.28;29.42;102110.91;5096867;27;45498;-85
2022/07/07 09:57:18;;;;;;;;;4.00;2.25;;;;;35.12;29.51;102117.88;5087351;27;45483;-85
2022/07/07 09:59:46;;;;;;;;;2.00;2.00;;;;;35.24;29.09;102117.94;5084224;27;47144;-84
2022/07/07 10:02:19;;;;;;;;;4.25;3.00;;;;;35.19;29.78;102124.13;5103263;27;45576;-85
2022/07/07 10:04:55;;;;;;;;;2.00;2.00;;;;;35.00;29.64;102124.38;5083343;27;45484;-84
2022/07/07 10:07:28;;;;;;;;;5.50;3.00;;;;;34.95;29.95;102143.47;5084071;27;45531;-84
2022/07/07 10:09:55;;;;;;;;;5.25;2.00;;;;;34.79;30.07;102145.75;5102720;27;45603;-85
2022/07/07 10:12:24;;;;;;;;;3.00;2.00;;;;;34.51;30.63;102148.19;5102421;27;45716;-84
2022/07/07 10:14:53;;;;;;;;;2.50;2.25;;;;;34.37;30.93;102160.38;5084377;27;45377;-85
2022/07/07 10:17:20;;;;;;;;;3.50;2.50;;;;;34.18;31.07;102148.50;5099626;27;45586;-85
2022/07/07 10:19:46;;;;;;;;;4.00;2.00;;;;;34.13;31.39;102157.44;5083533;27;46363;-84
2022/07/07 10:22:13;;;;;;;;;2.00;2.00;;;;;34.16;30.96;102146.00;5083778;27;45508;-84
2022/07/07 10:24:40;;;;;;;;;2.75;2.00;;;;;34.08;30.74;102157.25;5084024;27;45471;-85
2022/07/07 10:27:06;;;;;;;;;4.00;2.50;;;;;34.03;31.27;102159.84;5083525;27;45796;-84
2022/07/07 10:29:49;;;;;;;;;1.75;1.75;;;;;33.84;31.68;102166.31;5102109;27;45341;-85
2022/07/07 10:32:31;;;;;;;;;3.00;3.00;;;;;33.88;31.28;102178.50;5083255;27;45555;-85
2022/07/07 10:34:59;;;;;;;;;1.75;1.75;;;;;34.06;31.33;102178.56;5102156;27;45556;-84
2022/07/07 10:37:26;;;;;;;;;3.00;3.00;;;;;34.11;31.22;102181.47;5083715;27;45623;-85
2022/07/07 10:39:54;;;;;;;;;4.00;2.25;;;;;34.14;31.24;102178.28;5083340;27;47096;-84
2022/07/07 10:42:38;;;;;;;;;3.00;3.00;;;;;33.67;31.64;102182.44;5083629;27;45469;-84
2022/07/07 10:45:05;;;;;;;;;3.25;3.00;;;;;34.37;31.17;102190.56;5083514;27;45471;-85
2022/07/07 10:47:35;;;;;;;;;8.25;5.00;;;;;34.78;30.83;102184.44;5083473;27;45558;-85
2022/07/07 10:50:01;;;;;;;;;6.00;4.50;;;;;34.70;31.01;102180.03;5101180;27;46159;-85
2022/07/07 10:52:41;;;;;;;;;5.00;5.00;;;;;35.64;29.69;102189.63;5102537;27;45519;-84
2022/07/07 10:55:07;;;;;;;;;7.00;5.00;;;;;35.85;29.21;102180.03;5092159;27;45284;-85
2022/07/07 10:57:42;;;;;;;;;3.00;3.00;;;;;35.59;29.44;102189.50;5074472;27;45562;-84
2022/07/07 11:00:09;;;;;;;;;2.50;2.50;;;;;34.74;30.19;102199.69;5091096;27;46272;-84
2022/07/07 11:02:35;;;;;;;;;2.75;2.75;;;;;35.21;29.47;102187.06;5061680;27;46770;-84
2022/07/07 11:05:28;;;;;;;;;3.50;3.00;;;;;34.11;30.85;102180.66;5064248;27;45863;-84
2022/07/07 11:07:56;;;;;;;;;3.00;2.50;;;;;34.14;30.81;102202.94;5066502;27;46729;-84
2022/07/07 11:10:43;;;;;;;;;4.50;3.00;;;;;34.08;31.03;102201.13;5076462;27;46516;-84
2022/07/07 11:13:39;;;;;;;;;4.00;3.00;;;;;34.03;31.50;102202.88;5074069;27;46260;-84
2022/07/07 11:16:17;;;;;;;;;5.75;5.00;;;;;33.23;32.09;102218.94;5072177;27;45911;-83
2022/07/07 11:18:48;;;;;;;;;3.25;2.25;;;;;33.70;31.96;102209.38;5087301;27;45576;-84
2022/07/07 11:21:14;;;;;;;;;3.75;3.00;;;;;33.16;32.44;102212.63;5058564;27;47723;-84
2022/07/07 11:23:52;;;;;;;;;4.00;4.00;;;;;33.77;32.06;102206.66;5059205;27;45545;-84
2022/07/07 11:26:20;;;;;;;;;7.25;4.00;;;;;34.61;31.33;102206.13;5077201;27;45429;-83